createdAt,value
2023-07-15T00:01:36.354Z,69.90
2023-07-15T00:08:16.092Z,69.10
2023-07-15T00:10:44.994Z,68.90
2023-07-15T00:13:17.023Z,68.80
2023-07-15T00:15:48.279Z,68.60
2023-07-15T00:18:15.621Z,68.40
2023-07-15T00:20:42.872Z,69.40
2023-07-15T00:23:18.936Z,70.90
2023-07-15T00:25:46.279Z,71.00
2023-07-15T00:28:13.071Z,70.80
2023-07-15T00:30:40.032Z,71.30
2023-07-15T00:33:13.226Z,71.10
2023-07-15T00:35:40.049Z,71.40
2023-07-15T00:38:06.830Z,71.30
2023-07-15T00:40:39.550Z,70.80
2023-07-15T00:43:44.646Z,70.20
2023-07-15T00:46:20.405Z,71.10
2023-07-15T00:48:53.319Z,70.90
2023-07-15T00:51:21.651Z,70.00
2023-07-15T00:53:49.702Z,69.90
2023-07-15T00:56:17.259Z,69.80
2023-07-15T00:58:44.149Z,70.50
2023-07-15T01:01:14.728Z,72.00
2023-07-15T01:03:41.811Z,71.70
2023-07-15T01:06:08.824Z,71.00
2023-07-15T01:08:36.673Z,71.40
2023-07-15T01:11:03.489Z,71.10
2023-07-15T01:13:30.350Z,71.30
2023-07-15T01:15:57.148Z,71.40
2023-07-15T01:18:24.017Z,70.50
2023-07-15T01:20:51.940Z,70.60
2023-07-15T01:23:18.857Z,71.20
2023-07-15T01:25:45.821Z,71.00
2023-07-15T01:28:12.597Z,70.40
2023-07-15T01:30:39.393Z,70.30
2023-07-15T01:33:06.268Z,70.90
2023-07-15T01:35:33.299Z,71.60
2023-07-15T01:38:00.072Z,71.70
2023-07-15T01:40:26.852Z,71.40
2023-07-15T01:42:53.686Z,71.20
2023-07-15T01:45:21.289Z,70.90
2023-07-15T01:47:48.072Z,70.70
2023-07-15T01:50:14.897Z,70.70
2023-07-15T01:52:41.779Z,70.60
2023-07-15T01:55:08.978Z,70.10
2023-07-15T01:57:35.876Z,70.80
2023-07-15T02:00:02.683Z,70.70
2023-07-15T02:02:40.174Z,70.70
2023-07-15T02:05:07.471Z,71.00
2023-07-15T02:07:34.323Z,71.40
2023-07-15T02:10:01.100Z,71.90
2023-07-15T02:12:29.144Z,71.50
2023-07-15T02:14:56.869Z,71.00
2023-07-15T02:17:24.268Z,69.90
2023-07-15T02:19:51.241Z,69.30
2023-07-15T02:22:18.269Z,69.50
2023-07-15T02:24:45.145Z,69.50
2023-07-15T02:27:12.293Z,70.10
2023-07-15T02:29:39.006Z,70.80
2023-07-15T02:32:06.146Z,71.70
2023-07-15T02:34:32.872Z,71.80
2023-07-15T02:36:59.596Z,71.60
2023-07-15T02:39:27.709Z,71.40
2023-07-15T02:41:54.505Z,72.20
2023-07-15T02:44:21.186Z,71.90
2023-07-15T02:46:49.113Z,72.40
2023-07-15T02:49:17.012Z,72.10
2023-07-15T02:51:43.760Z,72.00
2023-07-15T02:54:10.501Z,72.90
2023-07-15T02:56:37.690Z,72.70
2023-07-15T02:59:04.403Z,72.50
2023-07-15T03:01:32.664Z,72.10
2023-07-15T03:03:59.445Z,72.10
2023-07-15T03:06:26.119Z,72.10
2023-07-15T03:08:53.342Z,72.60
2023-07-15T03:11:20.033Z,72.90
2023-07-15T03:13:46.773Z,72.60
2023-07-15T03:16:13.893Z,72.50
2023-07-15T03:18:41.392Z,71.90
2023-07-15T03:21:08.090Z,72.00
2023-07-15T03:23:34.784Z,72.40
2023-07-15T03:26:01.483Z,72.70
2023-07-15T03:28:28.171Z,72.50
2023-07-15T03:30:55.036Z,72.60
2023-07-15T03:33:22.788Z,72.40
2023-07-15T03:35:50.523Z,72.00
2023-07-15T03:38:17.417Z,71.70
2023-07-15T03:40:44.207Z,71.90
2023-07-15T03:43:11.243Z,72.40
2023-07-15T03:45:38.016Z,72.20
2023-07-15T03:48:06.218Z,72.70
2023-07-15T03:50:32.974Z,72.80
2023-07-15T03:52:59.645Z,73.50
2023-07-15T03:55:26.348Z,73.40
2023-07-15T03:57:53.067Z,72.90
2023-07-15T04:00:19.922Z,72.50
2023-07-15T04:02:47.593Z,72.20
2023-07-15T04:05:14.410Z,71.90
2023-07-15T04:07:41.698Z,72.40
2023-07-15T04:10:08.672Z,72.40
2023-07-15T04:12:35.392Z,72.50
2023-07-15T04:15:02.092Z,72.50
2023-07-15T04:17:28.829Z,72.40
2023-07-15T04:19:55.530Z,72.70
2023-07-15T04:22:22.281Z,72.50
2023-07-15T04:24:49.117Z,73.00
2023-07-15T04:27:15.862Z,73.20
2023-07-15T04:29:42.542Z,73.00
2023-07-15T04:32:09.432Z,73.30
2023-07-15T04:34:36.125Z,72.90
2023-07-15T04:37:03.449Z,73.20
2023-07-15T04:39:30.339Z,72.80
2023-07-15T04:41:57.145Z,72.70
2023-07-15T04:44:23.823Z,72.50
2023-07-15T04:46:50.517Z,72.30
2023-07-15T04:49:18.916Z,72.50
2023-07-15T04:51:45.766Z,72.40
2023-07-15T04:54:12.662Z,72.60
2023-07-15T04:56:39.345Z,72.50
2023-07-15T04:59:06.640Z,72.60
2023-07-15T05:01:33.401Z,72.10
2023-07-15T05:04:01.101Z,72.40
2023-07-15T05:06:28.761Z,72.20
2023-07-15T05:08:55.869Z,72.00
2023-07-15T05:11:23.021Z,71.80
2023-07-15T05:13:49.744Z,72.10
2023-07-15T05:16:16.636Z,72.20
2023-07-15T05:18:43.526Z,72.00
2023-07-15T05:21:10.498Z,71.70
2023-07-15T05:23:37.222Z,71.60
2023-07-15T05:26:03.945Z,71.10
2023-07-15T05:28:33.879Z,71.10
2023-07-15T05:31:01.692Z,70.60
2023-07-15T05:33:29.672Z,69.70
2023-07-15T05:35:57.155Z,69.20
2023-07-15T05:38:25.221Z,69.20
2023-07-15T05:40:52.840Z,69.20
2023-07-15T05:43:20.652Z,69.10
2023-07-15T05:45:48.202Z,69.00
2023-07-15T05:48:15.073Z,69.10
2023-07-15T05:50:41.932Z,68.30
2023-07-15T05:53:09.186Z,67.70
2023-07-15T05:55:36.427Z,67.30
2023-07-15T05:58:10.434Z,67.50
2023-07-15T06:00:41.329Z,67.40
2023-07-15T06:03:09.544Z,67.30
2023-07-15T06:05:36.472Z,67.20
2023-07-15T06:08:03.462Z,67.00
2023-07-15T06:10:30.324Z,67.40
2023-07-15T06:12:57.040Z,67.00
2023-07-15T06:15:23.816Z,66.90
2023-07-15T06:17:50.590Z,67.20
2023-07-15T06:20:19.327Z,66.90
2023-07-15T06:22:46.296Z,66.80
2023-07-15T06:25:13.922Z,66.50
2023-07-15T06:27:40.838Z,66.00
2023-07-15T06:30:08.202Z,65.60
2023-07-15T06:32:35.386Z,65.70
2023-07-15T06:35:02.311Z,65.60
2023-07-15T06:37:29.028Z,65.10
2023-07-15T06:39:58.878Z,65.00
2023-07-15T06:42:28.638Z,65.30
2023-07-15T06:44:55.383Z,65.70
2023-07-15T06:47:22.263Z,65.30
2023-07-15T06:49:49.014Z,65.90
2023-07-15T06:52:15.752Z,66.20
2023-07-15T06:54:42.495Z,65.90
2023-07-15T06:57:09.368Z,65.70
2023-07-15T06:59:36.555Z,65.30
2023-07-15T07:02:03.506Z,63.90
2023-07-15T07:04:30.215Z,62.20
2023-07-15T07:06:56.948Z,62.10
2023-07-15T07:09:23.663Z,60.30
2023-07-15T07:11:50.416Z,59.70
2023-07-15T07:14:17.364Z,58.70
2023-07-15T07:16:45.171Z,57.90
2023-07-15T07:19:11.917Z,56.90
2023-07-15T07:21:39.708Z,56.30
2023-07-15T07:24:06.715Z,56.20
2023-07-15T07:26:33.435Z,55.60
2023-07-15T07:29:00.458Z,54.80
2023-07-15T07:31:27.220Z,54.60
2023-07-15T07:33:54.094Z,53.80
2023-07-15T07:36:22.302Z,53.10
2023-07-15T07:38:49.054Z,52.30
2023-07-15T07:41:17.710Z,52.00
2023-07-15T07:43:44.694Z,51.50
2023-07-15T07:46:12.277Z,51.90
2023-07-15T07:48:39.283Z,51.70
2023-07-15T07:51:06.057Z,51.20
2023-07-15T07:53:32.800Z,51.00
2023-07-15T07:55:59.978Z,51.20
2023-07-15T07:58:26.780Z,51.40
2023-07-15T08:00:53.583Z,51.00
2023-07-15T08:03:20.497Z,50.70
2023-07-15T08:05:48.961Z,50.90
2023-07-15T08:08:16.438Z,50.70
2023-07-15T08:10:43.222Z,50.80
2023-07-15T08:13:10.087Z,49.70
2023-07-15T08:15:37.782Z,49.20
2023-07-15T08:18:05.999Z,49.30
2023-07-15T08:20:33.174Z,48.20
2023-07-15T08:23:01.057Z,48.10
2023-07-15T08:25:28.663Z,47.50
2023-07-15T08:27:55.632Z,47.40
2023-07-15T08:30:22.927Z,48.10
2023-07-15T08:32:49.818Z,46.00
2023-07-15T08:35:16.610Z,46.60
2023-07-15T08:37:43.527Z,46.30
2023-07-15T08:40:14.519Z,46.60
2023-07-15T08:42:41.692Z,45.90
2023-07-15T08:45:09.245Z,46.00
2023-07-15T08:47:38.593Z,46.10
2023-07-15T08:50:11.434Z,46.20
2023-07-15T08:52:39.585Z,45.30
2023-07-15T08:55:07.861Z,44.50
2023-07-15T08:57:36.339Z,43.80
2023-07-15T09:00:11.451Z,43.40
2023-07-15T09:02:39.692Z,43.50
2023-07-15T09:05:08.946Z,43.60
2023-07-15T09:07:45.176Z,43.50
2023-07-15T09:10:15.464Z,41.80
2023-07-15T09:12:54.300Z,43.20
2023-07-15T09:15:21.520Z,41.60
2023-07-15T09:17:59.094Z,41.60
2023-07-15T09:20:27.179Z,41.80
2023-07-15T09:22:59.112Z,41.50
2023-07-15T09:25:26.734Z,40.40
2023-07-15T09:27:54.492Z,40.50
2023-07-15T09:30:21.649Z,40.90
2023-07-15T09:32:48.875Z,41.60
2023-07-15T09:35:15.982Z,41.30
2023-07-15T09:37:42.931Z,40.90
2023-07-15T09:40:10.333Z,40.60
2023-07-15T09:42:57.170Z,41.00
2023-07-15T09:45:34.449Z,40.60
2023-07-15T09:48:07.054Z,39.90
2023-07-15T09:50:35.827Z,40.00
2023-07-15T09:53:03.735Z,40.20
2023-07-15T09:55:32.220Z,39.80
2023-07-15T09:58:16.839Z,39.90
2023-07-15T10:00:48.319Z,39.70
2023-07-15T10:03:23.981Z,39.40
2023-07-15T10:05:51.660Z,39.20
2023-07-15T10:08:18.879Z,39.20
2023-07-15T10:10:46.211Z,38.60
2023-07-15T10:13:14.063Z,38.10
2023-07-15T10:15:41.841Z,38.70
2023-07-15T10:18:19.219Z,37.60
2023-07-15T10:20:56.988Z,37.40
2023-07-15T10:23:28.777Z,37.30
2023-07-15T10:26:04.626Z,37.10
2023-07-15T10:28:41.012Z,37.10
2023-07-15T10:31:17.940Z,36.50
2023-07-15T10:33:55.653Z,36.20
2023-07-15T10:37:06.471Z,36.20
2023-07-15T10:39:33.984Z,36.40
2023-07-15T10:42:09.381Z,35.90
2023-07-15T10:44:41.727Z,35.30
2023-07-15T10:47:09.730Z,35.70
2023-07-15T10:49:36.986Z,35.90
2023-07-15T10:52:05.553Z,35.80
2023-07-15T10:54:36.271Z,35.60
2023-07-15T10:57:11.511Z,36.20
2023-07-15T10:59:43.056Z,36.90
2023-07-15T11:02:10.106Z,36.00
2023-07-15T11:04:39.423Z,35.70
2023-07-15T11:07:10.258Z,35.70
2023-07-15T11:09:41.583Z,35.90
2023-07-15T11:12:10.110Z,36.30
2023-07-15T11:14:41.835Z,35.50
2023-07-15T11:17:09.080Z,35.70
2023-07-15T11:19:35.949Z,35.50
2023-07-15T11:22:10.563Z,35.50
2023-07-15T11:24:37.310Z,36.40
2023-07-15T11:27:04.399Z,35.30
2023-07-15T11:29:31.118Z,34.40
2023-07-15T11:31:58.331Z,35.10
2023-07-15T11:34:27.291Z,34.60
2023-07-15T11:36:55.651Z,34.80
2023-07-15T11:39:22.799Z,36.00
2023-07-15T11:41:52.762Z,35.10
2023-07-15T11:44:24.069Z,35.40
2023-07-15T11:46:51.142Z,34.20
2023-07-15T11:49:22.148Z,35.40
2023-07-15T11:51:49.462Z,34.60
2023-07-15T11:54:17.883Z,34.70
2023-07-15T11:56:46.437Z,35.50
2023-07-15T11:59:33.586Z,34.80
2023-07-15T12:02:04.524Z,35.00
2023-07-15T12:04:32.414Z,34.60
2023-07-15T12:07:05.280Z,34.00
2023-07-15T12:09:32.819Z,34.20
2023-07-15T12:11:59.831Z,34.00
2023-07-15T12:14:27.204Z,34.30
2023-07-15T12:16:56.825Z,34.40
2023-07-15T12:19:25.563Z,34.20
2023-07-15T12:21:53.300Z,32.80
2023-07-15T12:24:20.060Z,34.40
2023-07-15T12:26:46.816Z,33.30
2023-07-15T12:29:13.565Z,33.60
2023-07-15T12:31:40.278Z,33.90
2023-07-15T12:34:07.032Z,33.80
2023-07-15T12:36:33.858Z,34.30
2023-07-15T12:39:00.589Z,34.40
2023-07-15T12:41:27.359Z,34.00
2023-07-15T12:43:54.098Z,35.80
2023-07-15T12:46:20.912Z,34.20
2023-07-15T12:48:50.103Z,33.50
2023-07-15T12:51:17.018Z,33.60
2023-07-15T12:53:43.785Z,33.90
2023-07-15T12:56:14.829Z,33.10
2023-07-15T12:58:42.010Z,33.90
2023-07-15T13:01:08.747Z,34.10
2023-07-15T13:03:35.564Z,34.10
2023-07-15T13:06:02.721Z,34.40
2023-07-15T13:08:29.485Z,32.40
2023-07-15T13:10:56.417Z,33.50
2023-07-15T13:13:23.345Z,34.20
2023-07-15T13:15:50.920Z,35.00
2023-07-15T13:18:17.722Z,33.40
2023-07-15T13:20:44.458Z,34.00
2023-07-15T13:23:11.407Z,33.50
2023-07-15T13:25:38.275Z,33.20
2023-07-15T13:28:05.849Z,33.50
2023-07-15T13:30:32.757Z,32.60
2023-07-15T13:32:59.717Z,32.00
2023-07-15T13:35:26.715Z,32.40
2023-07-15T13:37:53.461Z,32.40
2023-07-15T13:40:21.105Z,32.60
2023-07-15T13:42:50.676Z,32.10
2023-07-15T13:45:17.912Z,33.10
2023-07-15T13:47:44.987Z,32.20
2023-07-15T13:50:12.823Z,32.70
2023-07-15T13:52:39.662Z,33.30
2023-07-15T13:55:06.790Z,31.80
2023-07-15T13:57:33.570Z,31.50
2023-07-15T14:00:00.290Z,32.30
2023-07-15T14:02:27.042Z,31.20
2023-07-15T14:04:53.791Z,31.40
2023-07-15T14:07:20.494Z,30.60
2023-07-15T14:09:47.238Z,31.10
2023-07-15T14:12:13.974Z,31.50
2023-07-15T14:14:40.704Z,31.00
2023-07-15T14:17:09.028Z,30.30
2023-07-15T14:19:35.848Z,31.90
2023-07-15T14:22:15.470Z,30.20
2023-07-15T14:24:44.457Z,31.40
2023-07-15T14:27:11.814Z,30.70
2023-07-15T14:29:41.628Z,30.40
2023-07-15T14:32:08.612Z,30.90
2023-07-15T14:34:35.334Z,30.10
2023-07-15T14:37:02.069Z,30.10
2023-07-15T14:39:28.825Z,29.90
2023-07-15T14:41:55.537Z,30.60
2023-07-15T14:44:22.250Z,31.00
2023-07-15T14:46:48.977Z,31.00
2023-07-15T14:49:16.016Z,30.40
2023-07-15T14:51:42.809Z,30.10
2023-07-15T14:54:09.541Z,28.80
2023-07-15T14:56:36.328Z,31.40
2023-07-15T14:59:03.129Z,30.70
2023-07-15T15:01:31.200Z,30.30
2023-07-15T15:03:58.409Z,29.60
2023-07-15T15:06:25.526Z,30.00
2023-07-15T15:08:52.302Z,29.20
2023-07-15T15:11:19.131Z,28.00
2023-07-15T15:13:50.298Z,29.30
2023-07-15T15:16:17.132Z,28.80
2023-07-15T15:18:47.110Z,28.20
2023-07-15T15:21:15.471Z,28.00
2023-07-15T15:23:42.946Z,27.50
2023-07-15T15:26:10.068Z,28.80
2023-07-15T15:28:41.857Z,29.80
2023-07-15T15:31:08.787Z,29.10
2023-07-15T15:33:35.610Z,28.20
2023-07-15T15:36:02.282Z,27.40
2023-07-15T15:38:29.009Z,27.00
2023-07-15T15:40:57.254Z,28.20
2023-07-15T15:43:24.434Z,27.90
2023-07-15T15:45:51.090Z,27.50
2023-07-15T15:48:18.370Z,26.90
2023-07-15T15:50:45.071Z,27.10
2023-07-15T15:53:11.771Z,27.60
2023-07-15T15:55:38.447Z,27.50
2023-07-15T15:58:05.238Z,26.80
2023-07-15T16:00:31.976Z,26.70
2023-07-15T16:02:58.816Z,26.10
2023-07-15T16:05:25.676Z,26.80
2023-07-15T16:07:52.435Z,26.20
2023-07-15T16:10:19.125Z,25.90
2023-07-15T16:12:45.758Z,25.80
2023-07-15T16:15:12.532Z,25.50
2023-07-15T16:17:39.310Z,26.30
2023-07-15T16:20:07.965Z,27.10
2023-07-15T16:22:35.216Z,27.90
2023-07-15T16:25:02.477Z,28.50
2023-07-15T16:27:29.225Z,28.90
2023-07-15T16:29:55.961Z,29.30
2023-07-15T16:32:22.963Z,30.50
2023-07-15T16:34:49.820Z,31.10
2023-07-15T16:37:16.518Z,31.10
2023-07-15T16:39:43.300Z,31.40
2023-07-15T16:42:10.062Z,33.00
2023-07-15T16:44:36.815Z,32.60
2023-07-15T16:47:03.821Z,33.70
2023-07-15T16:49:30.543Z,35.00
2023-07-15T16:51:57.286Z,35.10
2023-07-15T16:54:24.026Z,34.80
2023-07-15T16:56:50.756Z,35.50
2023-07-15T16:59:17.510Z,35.40
2023-07-15T17:01:44.291Z,38.30
2023-07-15T17:04:11.184Z,38.20
2023-07-15T17:06:38.016Z,35.80
2023-07-15T17:09:04.744Z,32.90
2023-07-15T17:11:31.595Z,29.60
2023-07-15T17:13:58.560Z,29.10
2023-07-15T17:16:25.623Z,27.60
2023-07-15T17:18:54.567Z,25.40
2023-07-15T17:21:22.250Z,25.20
2023-07-15T17:23:48.898Z,23.40
2023-07-15T17:26:15.551Z,22.10
2023-07-15T17:28:42.238Z,22.00
2023-07-15T17:31:09.040Z,24.30
2023-07-15T17:33:35.703Z,24.10
2023-07-15T17:36:02.398Z,22.80
2023-07-15T17:38:29.089Z,23.50
2023-07-15T17:40:55.730Z,22.40
2023-07-15T17:43:22.372Z,23.10
2023-07-15T17:45:49.550Z,22.70
2023-07-15T17:48:16.924Z,23.00
2023-07-15T17:50:43.851Z,23.80
2023-07-15T17:53:10.757Z,26.10
2023-07-15T17:55:37.604Z,27.20
2023-07-15T17:58:04.409Z,27.10
2023-07-15T18:00:31.236Z,26.20
2023-07-15T18:02:58.208Z,25.40
2023-07-15T18:05:27.971Z,25.10
2023-07-15T18:07:55.048Z,25.90
2023-07-15T18:10:22.055Z,25.30
2023-07-15T18:12:48.774Z,25.60
2023-07-15T18:15:15.871Z,26.10
2023-07-15T18:17:43.604Z,26.20
2023-07-15T18:20:10.587Z,26.20
2023-07-15T18:22:40.352Z,26.00
2023-07-15T18:25:07.686Z,27.10
2023-07-15T18:27:34.335Z,28.40
2023-07-15T18:30:01.074Z,28.90
2023-07-15T18:32:28.007Z,30.90
2023-07-15T18:34:58.540Z,32.30
2023-07-15T18:37:25.573Z,34.50
2023-07-15T18:39:52.320Z,35.50
2023-07-15T18:42:19.046Z,37.60
2023-07-15T18:44:46.670Z,37.90
2023-07-15T18:47:14.062Z,39.10
2023-07-15T18:49:42.143Z,39.00
2023-07-15T18:52:12.381Z,40.30
2023-07-15T18:54:39.057Z,40.40
2023-07-15T18:57:20.567Z,40.60
2023-07-15T18:59:49.487Z,41.10
2023-07-15T19:02:16.276Z,40.60
2023-07-15T19:04:43.082Z,41.10
2023-07-15T19:07:09.926Z,41.20
2023-07-15T19:09:36.642Z,41.50
2023-07-15T19:12:03.506Z,42.80
2023-07-15T19:14:30.212Z,42.90
2023-07-15T19:16:56.971Z,43.10
2023-07-15T19:19:23.888Z,43.60
2023-07-15T19:21:50.635Z,43.40
2023-07-15T19:24:17.429Z,43.70
2023-07-15T19:26:44.346Z,43.70
2023-07-15T19:29:11.106Z,43.70
2023-07-15T19:31:37.864Z,43.60
2023-07-15T19:34:04.629Z,44.00
2023-07-15T19:36:31.416Z,44.30
2023-07-15T19:38:58.147Z,45.10
2023-07-15T19:41:24.919Z,45.00
2023-07-15T19:43:51.629Z,45.00
2023-07-15T19:46:18.776Z,45.20
2023-07-15T19:48:46.472Z,45.20
2023-07-15T19:51:13.607Z,45.60
2023-07-15T19:53:40.391Z,45.20
2023-07-15T19:56:07.176Z,45.50
2023-07-15T19:58:34.058Z,46.30
2023-07-15T20:01:01.020Z,47.00
2023-07-15T20:03:27.976Z,47.10
2023-07-15T20:05:54.931Z,47.40
2023-07-15T20:08:23.236Z,47.60
2023-07-15T20:10:50.127Z,47.40
2023-07-15T20:13:18.073Z,47.40
2023-07-15T20:15:45.204Z,47.80
2023-07-15T20:18:12.009Z,48.10
2023-07-15T20:20:38.827Z,48.60
2023-07-15T20:23:05.655Z,48.90
2023-07-15T20:25:32.396Z,49.40
2023-07-15T20:27:59.113Z,50.40
2023-07-15T20:30:25.929Z,50.70
2023-07-15T20:32:52.739Z,51.10
2023-07-15T20:35:19.733Z,51.60
2023-07-15T20:37:46.460Z,52.00
2023-07-15T20:40:13.425Z,52.50
2023-07-15T20:42:40.251Z,52.80
2023-07-15T20:45:07.614Z,52.30
2023-07-15T20:47:42.018Z,52.70
2023-07-15T20:50:08.829Z,53.10
2023-07-15T20:52:35.576Z,53.70
2023-07-15T20:55:02.381Z,53.90
2023-07-15T20:57:29.080Z,53.50
2023-07-15T20:59:55.806Z,53.50
2023-07-15T21:02:23.835Z,54.00
2023-07-15T21:04:52.471Z,54.10
2023-07-15T21:07:19.188Z,54.00
2023-07-15T21:09:46.946Z,54.40
2023-07-15T21:12:13.648Z,54.90
2023-07-15T21:14:40.376Z,54.90
2023-07-15T21:17:08.194Z,55.00
2023-07-15T21:19:35.599Z,54.30
2023-07-15T21:22:03.962Z,53.50
2023-07-15T21:24:30.750Z,53.30
2023-07-15T21:26:58.521Z,53.70
2023-07-15T21:29:25.446Z,53.60
2023-07-15T21:31:52.220Z,53.50
2023-07-15T21:34:19.328Z,53.60
2023-07-15T21:36:46.057Z,53.80
2023-07-15T21:39:12.860Z,54.10
2023-07-15T21:41:40.520Z,53.90
2023-07-15T21:44:07.285Z,53.70
2023-07-15T21:46:37.274Z,54.10
2023-07-15T21:49:04.410Z,54.30
2023-07-15T21:51:31.201Z,54.40
2023-07-15T21:53:57.927Z,54.50
2023-07-15T21:56:24.892Z,54.30
2023-07-15T21:58:51.695Z,54.70
2023-07-15T22:01:18.510Z,55.00
2023-07-15T22:03:45.312Z,55.50
2023-07-15T22:06:12.195Z,55.50
2023-07-15T22:08:39.131Z,55.90
2023-07-15T22:11:05.869Z,56.30
2023-07-15T22:13:32.620Z,56.70
2023-07-15T22:15:59.398Z,56.80
2023-07-15T22:18:39.826Z,57.00
2023-07-15T22:21:08.655Z,57.20
2023-07-15T22:23:35.494Z,57.90
2023-07-15T22:26:02.260Z,58.60
2023-07-15T22:28:29.011Z,60.10
2023-07-15T22:30:55.760Z,61.20
2023-07-15T22:33:22.568Z,61.50
2023-07-15T22:35:49.375Z,61.60
2023-07-15T22:38:16.153Z,61.80
2023-07-15T22:40:42.915Z,62.00
2023-07-15T22:43:09.680Z,61.90
2023-07-15T22:45:48.209Z,61.90
2023-07-15T22:48:19.081Z,62.20
2023-07-15T22:50:45.854Z,62.40
2023-07-15T22:53:12.694Z,62.80
2023-07-15T22:55:39.403Z,63.20
2023-07-15T22:58:06.193Z,63.50
2023-07-15T23:00:32.972Z,64.00
2023-07-15T23:03:01.237Z,64.10
2023-07-15T23:05:28.201Z,64.30
2023-07-15T23:07:54.902Z,64.50
2023-07-15T23:10:21.626Z,64.10
2023-07-15T23:12:48.380Z,63.60
2023-07-15T23:15:15.172Z,63.70
2023-07-15T23:17:41.974Z,63.80
2023-07-15T23:20:08.899Z,64.20
2023-07-15T23:22:35.860Z,64.40
2023-07-15T23:25:06.592Z,64.60
2023-07-15T23:27:33.606Z,64.40
2023-07-15T23:30:00.328Z,63.90
2023-07-15T23:32:28.808Z,63.70
2023-07-15T23:34:59.264Z,63.40
2023-07-15T23:37:26.926Z,63.50
2023-07-15T23:39:55.825Z,63.60
2023-07-15T23:42:25.879Z,63.60
2023-07-15T23:44:53.012Z,64.70
2023-07-15T23:47:20.383Z,64.90
2023-07-15T23:49:50.242Z,65.50
2023-07-15T23:52:17.503Z,65.30
2023-07-15T23:54:44.268Z,65.70
2023-07-15T23:57:11.031Z,65.80
2023-07-15T23:59:37.867Z,65.90
